createdAt,value
2018-09-02T00:00:46.271Z,82.70
2018-09-02T00:03:24.551Z,83.00
2018-09-02T00:05:54.083Z,81.90
2018-09-02T00:08:25.500Z,81.40
2018-09-02T00:10:56.502Z,81.60
2018-09-02T00:13:30.337Z,82.80
2018-09-02T00:16:02.682Z,83.10
2018-09-02T00:18:31.564Z,83.30
2018-09-02T00:21:00.864Z,83.40
2018-09-02T00:23:30.725Z,83.80
2018-09-02T00:25:59.880Z,80.50
2018-09-02T00:28:29.793Z,82.10
2018-09-02T00:31:00.423Z,80.60
2018-09-02T00:33:31.916Z,79.60
2018-09-02T00:36:01.994Z,79.20
2018-09-02T00:38:31.127Z,81.10
2018-09-02T00:41:03.036Z,80.60
2018-09-02T00:46:33.800Z,78.00
2018-09-02T00:49:04.119Z,77.40
2018-09-02T00:51:34.010Z,78.30
2018-09-02T00:56:54.130Z,82.30
2018-09-02T04:34:37.322Z,81.40
2018-09-02T04:37:07.827Z,84.90
2018-09-02T04:39:39.380Z,81.40
2018-09-02T04:42:11.470Z,81.40
2018-09-02T04:44:41.973Z,82.00
2018-09-02T04:47:13.497Z,80.50
2018-09-02T04:49:44.102Z,79.20
2018-09-02T04:52:15.529Z,80.50
2018-09-02T04:54:45.799Z,78.30
2018-09-02T04:57:15.410Z,78.60
2018-09-02T04:59:45.388Z,78.30
2018-09-02T05:02:15.681Z,79.40
2018-09-02T05:04:46.807Z,79.90
2018-09-02T05:07:18.388Z,79.20
2018-09-02T05:09:48.799Z,79.80
2018-09-02T05:12:18.306Z,80.50
2018-09-02T05:14:47.629Z,80.50
2018-09-02T05:17:17.460Z,80.60
2018-09-02T05:19:46.931Z,80.90
2018-09-02T05:22:16.439Z,80.80
2018-09-02T05:24:45.625Z,80.80
2018-09-02T05:27:15.806Z,80.80
2018-09-02T05:29:46.091Z,80.80
2018-09-02T05:32:26.110Z,81.70
2018-09-02T05:34:56.740Z,80.80
2018-09-02T05:37:34.213Z,80.90
2018-09-02T05:40:03.936Z,82.20
2018-09-02T05:42:33.512Z,81.60
2018-09-02T05:45:06.267Z,81.10
2018-09-02T05:47:39.977Z,80.60
2018-09-02T05:50:11.447Z,81.00
2018-09-02T05:52:44.609Z,80.70
2018-09-02T05:55:16.371Z,80.70
2018-09-02T05:57:45.551Z,80.60
2018-09-02T06:00:15.292Z,80.70
2018-09-02T06:02:45.286Z,80.70
2018-09-02T06:05:21.103Z,80.70
2018-09-02T06:08:06.117Z,82.70
2018-09-02T06:10:41.596Z,81.30
2018-09-02T06:13:38.946Z,81.40
2018-09-02T06:16:09.755Z,81.80
2018-09-02T06:18:46.849Z,83.60
2018-09-02T06:21:20.674Z,83.70
2018-09-02T06:24:03.489Z,84.10
2018-09-02T06:26:34.116Z,83.70
2018-09-02T06:29:07.613Z,83.10
2018-09-02T06:31:37.073Z,82.30
2018-09-02T06:34:06.932Z,83.40
2018-09-02T06:36:37.356Z,82.70
2018-09-02T06:39:14.109Z,81.50
2018-09-02T06:42:15.694Z,82.70
2018-09-02T06:44:50.944Z,82.00
2018-09-02T06:47:21.376Z,82.50
2018-09-02T06:50:05.008Z,81.90
2018-09-02T06:52:36.150Z,80.90
2018-09-02T08:33:15.900Z,80.00
2018-09-02T08:35:46.669Z,55.20
2018-09-02T08:38:16.380Z,56.30
2018-09-02T08:40:46.267Z,55.30
2018-09-02T08:43:17.179Z,51.40
2018-09-02T08:45:48.588Z,46.40
2018-09-02T08:48:18.908Z,46.00
2018-09-02T08:50:48.772Z,45.90
2018-09-02T08:53:21.646Z,45.30
2018-09-02T08:55:52.635Z,42.50
2018-09-02T08:58:22.753Z,40.90
2018-09-02T09:00:52.999Z,40.60
2018-09-02T09:03:24.197Z,41.20
2018-09-02T09:05:59.341Z,41.70
2018-09-02T09:08:39.441Z,41.20
2018-09-02T09:11:09.711Z,38.60
2018-09-02T09:13:38.945Z,37.90
2018-09-02T09:16:08.453Z,36.90
2018-09-02T09:18:37.581Z,33.80
2018-09-02T09:21:07.677Z,32.40
2018-09-02T09:23:36.860Z,32.30
2018-09-02T09:26:07.834Z,32.40
2018-09-02T09:28:37.848Z,30.70
2018-09-02T09:31:08.615Z,28.70
2018-09-02T09:33:42.315Z,29.50
2018-09-02T09:36:11.374Z,31.20
2018-09-02T09:38:41.669Z,33.40
2018-09-02T09:41:11.042Z,36.80
2018-09-02T09:43:41.952Z,38.90
2018-09-02T09:46:11.431Z,41.00
2018-09-02T09:48:41.024Z,42.30
2018-09-02T09:51:11.465Z,44.50
2018-09-02T09:53:42.146Z,44.90
2018-09-02T09:56:33.053Z,44.70
2018-09-02T09:59:02.838Z,46.20
2018-09-02T10:01:35.394Z,45.90
2018-09-02T10:04:05.207Z,46.00
2018-09-02T10:06:34.730Z,48.00
2018-09-02T10:09:06.988Z,48.00
2018-09-02T10:11:36.844Z,49.40
2018-09-02T10:14:09.023Z,50.30
2018-09-02T10:16:43.901Z,50.80
2018-09-02T10:19:13.196Z,49.70
2018-09-02T10:21:43.234Z,49.80
2018-09-02T10:24:13.529Z,49.30
2018-09-02T10:27:21.971Z,48.10
2018-09-02T10:29:56.364Z,47.90
2018-09-02T10:32:27.224Z,49.30
2018-09-02T10:34:57.730Z,49.50
2018-09-02T10:37:27.666Z,50.50
2018-09-02T10:40:05.048Z,52.20
2018-09-02T10:42:34.850Z,52.40
2018-09-02T10:45:07.748Z,52.50
2018-09-02T10:47:50.414Z,53.10
2018-09-02T10:50:21.708Z,54.50
2018-09-02T10:52:52.147Z,55.10
2018-09-02T10:55:26.044Z,55.30
2018-09-02T10:57:55.232Z,55.60
2018-09-02T11:00:25.248Z,54.60
2018-09-02T11:02:55.751Z,55.60
2018-09-02T11:05:27.991Z,53.90
2018-09-02T11:07:58.014Z,54.10
2018-09-02T11:10:27.078Z,54.00
2018-09-02T11:12:58.193Z,53.90
2018-09-02T11:15:28.491Z,54.40
2018-09-02T11:17:59.282Z,54.60
2018-09-02T11:20:33.908Z,54.40
2018-09-02T11:23:10.577Z,53.70
2018-09-02T11:25:41.509Z,53.20
2018-09-02T11:28:10.885Z,51.90
2018-09-02T11:30:40.165Z,53.00
2018-09-02T11:33:10.542Z,52.70
2018-09-02T11:35:41.578Z,53.60
2018-09-02T11:38:12.882Z,54.50
2018-09-02T11:40:45.132Z,54.70
2018-09-02T11:43:15.525Z,55.40
2018-09-02T11:45:45.926Z,54.90
2018-09-02T11:48:15.855Z,54.70
2018-09-02T11:50:46.081Z,54.30
2018-09-02T11:53:19.376Z,51.60
2018-09-02T11:55:53.651Z,50.40
2018-09-02T11:58:25.411Z,47.30
2018-09-02T12:00:55.304Z,46.20
2018-09-02T12:03:26.040Z,44.60
2018-09-02T12:05:55.246Z,45.70
2018-09-02T12:08:25.092Z,46.90
2018-09-02T12:11:08.838Z,46.90
2018-09-02T12:13:38.254Z,46.30
2018-09-02T12:16:09.593Z,46.30
2018-09-02T12:18:39.674Z,46.10
2018-09-02T12:21:09.067Z,46.20
2018-09-02T14:01:20.418Z,51.20
2018-09-02T14:03:50.218Z,51.20
2018-09-02T14:06:20.808Z,51.80
2018-09-02T14:08:54.066Z,51.80
2018-09-02T14:11:24.053Z,51.50
2018-09-02T14:13:54.411Z,50.40
2018-09-02T14:16:26.752Z,49.50
2018-09-02T14:18:56.467Z,49.40
2018-09-02T14:21:25.963Z,48.90
2018-09-02T14:23:56.455Z,49.20
2018-09-02T14:26:27.079Z,49.40
2018-09-02T14:28:59.529Z,49.50
2018-09-02T14:31:32.000Z,49.70
2018-09-02T14:34:03.966Z,49.80
2018-09-02T14:36:33.254Z,48.90
2018-09-02T14:39:06.767Z,48.40
2018-09-02T14:41:36.127Z,48.90
2018-09-02T14:44:06.378Z,48.40
2018-09-02T14:46:36.330Z,49.00
2018-09-02T14:49:06.680Z,49.80
2018-09-02T14:51:40.145Z,49.50
2018-09-02T14:56:59.198Z,51.00
2018-09-02T14:59:28.190Z,52.10
2018-09-02T15:01:58.060Z,53.60
2018-09-02T15:04:27.336Z,54.80
2018-09-02T15:06:58.956Z,55.50
2018-09-02T15:09:30.830Z,57.30
2018-09-02T15:12:01.312Z,56.90
2018-09-02T15:14:31.405Z,56.90
2018-09-02T15:17:02.676Z,56.90
2018-09-02T15:19:35.814Z,57.30
2018-09-02T15:22:06.428Z,57.60
2018-09-02T15:24:37.895Z,57.10
2018-09-02T15:27:07.809Z,57.70
2018-09-02T15:29:43.557Z,57.40
2018-09-02T15:32:13.352Z,57.20
2018-09-02T15:34:42.928Z,57.20
2018-09-02T15:37:13.009Z,57.30
2018-09-02T15:39:42.186Z,57.40
2018-09-02T15:42:11.831Z,57.30
2018-09-02T15:44:41.068Z,57.40
2018-09-02T15:47:10.979Z,57.60
2018-09-02T15:49:40.686Z,58.00
2018-09-02T15:52:10.563Z,57.50
2018-09-02T15:54:41.812Z,57.70
2018-09-02T15:57:13.290Z,57.30
2018-09-02T15:59:43.056Z,57.90
2018-09-02T16:02:13.551Z,57.40
2018-09-02T16:04:49.453Z,57.50
2018-09-02T16:10:08.059Z,58.40
2018-09-02T16:12:38.740Z,59.30
2018-09-02T16:15:07.828Z,59.90
2018-09-02T16:17:37.455Z,60.10
2018-09-02T16:20:08.476Z,60.70
2018-09-02T16:22:37.374Z,61.20
2018-09-02T16:25:07.609Z,61.40
2018-09-02T16:27:36.788Z,61.80
2018-09-02T16:30:08.443Z,62.50
2018-09-02T16:32:39.441Z,61.90
2018-09-02T16:35:08.632Z,61.80
2018-09-02T16:37:38.471Z,61.90
2018-09-02T16:40:08.015Z,62.00
2018-09-02T16:42:38.942Z,62.00
2018-09-02T16:45:08.097Z,62.60
2018-09-02T16:47:38.365Z,62.60
2018-09-02T16:50:10.281Z,63.10
2018-09-02T16:52:40.379Z,63.40
2018-09-02T16:55:09.645Z,63.90
2018-09-02T16:58:05.926Z,64.20
2018-09-02T17:00:54.471Z,65.00
2018-09-02T19:46:54.182Z,65.60
2018-09-02T19:49:38.073Z,79.80
2018-09-02T19:52:10.205Z,80.40
2018-09-02T19:54:40.645Z,82.20
2018-09-02T19:57:10.902Z,81.00
2018-09-02T19:59:40.788Z,81.70
2018-09-02T20:02:12.538Z,81.40
2018-09-02T20:04:42.423Z,80.80
2018-09-02T20:07:35.639Z,80.50
2018-09-02T20:10:32.575Z,81.10
2018-09-02T20:13:22.962Z,80.20
